sensor_id;sensor_type;location;lat;lon;timestamp;pressure;altitude;pressure_sealevel;temperature;humidity
62418;BME280;48456;54.242;10.280;2023-03-04T00:00:25;101703.25;;;4.14;100.00
62418;BME280;48456;54.242;10.280;2023-03-04T00:02:51;101693.03;;;4.21;100.00
62418;BME280;48456;54.242;10.280;2023-03-04T00:05:18;101698.34;;;4.24;100.00
62418;BME280;48456;54.242;10.280;2023-03-04T00:07:44;101694.94;;;4.25;100.00
62418;BME280;48456;54.242;10.280;2023-03-04T00:10:11;101702.00;;;4.27;100.00
62418;BME280;48456;54.242;10.280;2023-03-04T00:12:37;101703.66;;;4.25;100.00
62418;BME280;48456;54.242;10.280;2023-03-04T00:15:04;101703.66;;;4.25;100.00
62418;BME280;48456;54.242;10.280;2023-03-04T00:17:30;101695.72;;;4.22;100.00
62418;BME280;48456;54.242;10.280;2023-03-04T00:19:56;101697.44;;;4.22;100.00
62418;BME280;48456;54.242;10.280;2023-03-04T00:22:23;101688.78;;;4.24;100.00
62418;BME280;48456;54.242;10.280;2023-03-04T00:24:49;101694.03;;;4.24;100.00
62418;BME280;48456;54.242;10.280;2023-03-04T00:27:15;101683.53;;;4.24;100.00
62418;BME280;48456;54.242;10.280;2023-03-04T00:29:42;101684.44;;;4.25;100.00
62418;BME280;48456;54.242;10.280;2023-03-04T00:32:08;101679.28;;;4.26;100.00
62418;BME280;48456;54.242;10.280;2023-03-04T00:34:35;101679.31;;;4.28;100.00
62418;BME280;48456;54.242;10.280;2023-03-04T00:37:01;101671.44;;;4.28;100.00
62418;BME280;48456;54.242;10.280;2023-03-04T00:39:28;101667.09;;;4.28;100.00
62418;BME280;48456;54.242;10.280;2023-03-04T00:41:55;101665.44;;;4.31;100.00
62418;BME280;48456;54.242;10.280;2023-03-04T00:44:21;101667.22;;;4.32;100.00
62418;BME280;48456;54.242;10.280;2023-03-04T00:46:48;101673.44;;;4.35;100.00
62418;BME280;48456;54.242;10.280;2023-03-04T00:49:14;101675.22;;;4.36;100.00
62418;BME280;48456;54.242;10.280;2023-03-04T00:51:40;101666.63;;;4.39;100.00
62418;BME280;48456;54.242;10.280;2023-03-04T00:54:07;101675.28;;;4.38;100.00
62418;BME280;48456;54.242;10.280;2023-03-04T00:56:33;101671.00;;;4.40;100.00
62418;BME280;48456;54.242;10.280;2023-03-04T00:58:59;101679.75;;;4.40;100.00
62418;BME280;48456;54.242;10.280;2023-03-04T01:01:26;101682.41;;;4.42;100.00
62418;BME280;48456;54.242;10.280;2023-03-04T01:03:52;101685.94;;;4.42;100.00
62418;BME280;48456;54.242;10.280;2023-03-04T01:06:18;101679.84;;;4.44;100.00
62418;BME280;48456;54.242;10.280;2023-03-04T01:08:45;101675.53;;;4.44;100.00
62418;BME280;48456;54.242;10.280;2023-03-04T01:11:11;101671.13;;;4.43;100.00
62418;BME280;48456;54.242;10.280;2023-03-04T01:13:37;101669.31;;;4.42;100.00
62418;BME280;48456;54.242;10.280;2023-03-04T01:16:05;101668.50;;;4.43;100.00
62418;BME280;48456;54.242;10.280;2023-03-04T01:18:31;101667.59;;;4.42;100.00
62418;BME280;48456;54.242;10.280;2023-03-04T01:20:58;101662.38;;;4.42;100.00
62418;BME280;48456;54.242;10.280;2023-03-04T01:23:24;101653.66;;;4.44;100.00
62418;BME280;48456;54.242;10.280;2023-03-04T01:25:51;101647.56;;;4.45;100.00
62418;BME280;48456;54.242;10.280;2023-03-04T01:28:17;101653.72;;;4.45;100.00
62418;BME280;48456;54.242;10.280;2023-03-04T01:30:43;101642.38;;;4.46;100.00
62418;BME280;48456;54.242;10.280;2023-03-04T01:33:10;101659.06;;;4.48;100.00
62418;BME280;48456;54.242;10.280;2023-03-04T01:35:36;101647.81;;;4.51;100.00
62418;BME280;48456;54.242;10.280;2023-03-04T01:38:02;101648.66;;;4.50;100.00
62418;BME280;48456;54.242;10.280;2023-03-04T01:40:30;101648.66;;;4.51;100.00
62418;BME280;48456;54.242;10.280;2023-03-04T01:42:56;101631.22;;;4.52;100.00
62418;BME280;48456;54.242;10.280;2023-03-04T01:45:23;101639.94;;;4.51;100.00
62418;BME280;48456;54.242;10.280;2023-03-04T01:47:49;101643.50;;;4.53;100.00
62418;BME280;48456;54.242;10.280;2023-03-04T01:50:21;101634.63;;;4.49;100.00
62418;BME280;48456;54.242;10.280;2023-03-04T01:52:49;101636.34;;;4.49;100.00
62418;BME280;48456;54.242;10.280;2023-03-04T01:55:16;101631.97;;;4.48;100.00
62418;BME280;48456;54.242;10.280;2023-03-04T01:57:43;101637.22;;;4.48;100.00
62418;BME280;48456;54.242;10.280;2023-03-04T02:00:16;101622.44;;;4.50;100.00
62418;BME280;48456;54.242;10.280;2023-03-04T02:02:44;101616.31;;;4.49;100.00
62418;BME280;48456;54.242;10.280;2023-03-04T02:05:11;101600.63;;;4.51;100.00
62418;BME280;48456;54.242;10.280;2023-03-04T02:07:38;101618.06;;;4.50;100.00
62418;BME280;48456;54.242;10.280;2023-03-04T02:10:04;101606.75;;;4.51;100.00
62418;BME280;48456;54.242;10.280;2023-03-04T02:12:31;101612.09;;;4.54;100.00
62418;BME280;48456;54.242;10.280;2023-03-04T02:14:57;101606.00;;;4.55;100.00
62418;BME280;48456;54.242;10.280;2023-03-04T02:17:24;101608.63;;;4.55;100.00
62418;BME280;48456;54.242;10.280;2023-03-04T02:20:38;101599.06;;;4.56;100.00
62418;BME280;48456;54.242;10.280;2023-03-04T02:22:39;101597.34;;;4.57;100.00
62418;BME280;48456;54.242;10.280;2023-03-04T02:25:12;101596.38;;;4.54;100.00
62418;BME280;48456;54.242;10.280;2023-03-04T02:27:40;101598.13;;;4.54;100.00
62418;BME280;48456;54.242;10.280;2023-03-04T02:30:08;101592.03;;;4.55;100.00
62418;BME280;48456;54.242;10.280;2023-03-04T02:32:35;101585.94;;;4.56;100.00
62418;BME280;48456;54.242;10.280;2023-03-04T02:35:01;101586.84;;;4.57;100.00
62418;BME280;48456;54.242;10.280;2023-03-04T02:37:28;101585.03;;;4.55;100.00
62418;BME280;48456;54.242;10.280;2023-03-04T02:39:54;101591.19;;;4.56;100.00
62418;BME280;48456;54.242;10.280;2023-03-04T02:42:20;101572.00;;;4.57;100.00
62418;BME280;48456;54.242;10.280;2023-03-04T02:44:47;101571.13;;;4.57;100.00
62418;BME280;48456;54.242;10.280;2023-03-04T02:47:16;101574.69;;;4.59;100.00
62418;BME280;48456;54.242;10.280;2023-03-04T02:49:45;101573.00;;;4.61;100.00
62418;BME280;48456;54.242;10.280;2023-03-04T02:52:13;101573.88;;;4.61;100.00
62418;BME280;48456;54.242;10.280;2023-03-04T02:54:42;101569.59;;;4.63;100.00
62418;BME280;48456;54.242;10.280;2023-03-04T02:57:09;101582.75;;;4.65;100.00
62418;BME280;48456;54.242;10.280;2023-03-04T02:59:37;101577.53;;;4.66;100.00
62418;BME280;48456;54.242;10.280;2023-03-04T03:02:04;101575.72;;;4.64;100.00
62418;BME280;48456;54.242;10.280;2023-03-04T03:04:31;101574.91;;;4.65;100.00
62418;BME280;48456;54.242;10.280;2023-03-04T03:06:57;101564.41;;;4.65;100.00
62418;BME280;48456;54.242;10.280;2023-03-04T03:09:24;101555.66;;;4.64;100.00
62418;BME280;48456;54.242;10.280;2023-03-04T03:11:50;101565.16;;;4.61;100.00
62418;BME280;48456;54.242;10.280;2023-03-04T03:14:16;101554.56;;;4.58;100.00
62418;BME280;48456;54.242;10.280;2023-03-04T03:16:43;101566.81;;;4.59;100.00
62418;BME280;48456;54.242;10.280;2023-03-04T03:19:09;101565.88;;;4.57;100.00
62418;BME280;48456;54.242;10.280;2023-03-04T03:21:36;101570.22;;;4.56;100.00
62418;BME280;48456;54.242;10.280;2023-03-04T03:24:02;101576.25;;;4.53;100.00
62418;BME280;48456;54.242;10.280;2023-03-04T03:26:28;101547.28;;;4.49;100.00
62418;BME280;48456;54.242;10.280;2023-03-04T03:28:55;101558.53;;;4.46;100.00
62418;BME280;48456;54.242;10.280;2023-03-04T03:31:21;101561.16;;;4.46;100.00
62418;BME280;48456;54.242;10.280;2023-03-04T03:33:48;101559.41;;;4.45;100.00
62418;BME280;48456;54.242;10.280;2023-03-04T03:36:14;101563.72;;;4.45;100.00
62418;BME280;48456;54.242;10.280;2023-03-04T03:38:40;101569.09;;;4.48;100.00
62418;BME280;48456;54.242;10.280;2023-03-04T03:41:07;101559.41;;;4.45;100.00
62418;BME280;48456;54.242;10.280;2023-03-04T03:43:33;101553.38;;;4.48;100.00
62418;BME280;48456;54.242;10.280;2023-03-04T03:45:59;101555.13;;;4.49;100.00
62418;BME280;48456;54.242;10.280;2023-03-04T03:48:26;101549.84;;;4.47;100.00
62418;BME280;48456;54.242;10.280;2023-03-04T03:50:52;101541.16;;;4.48;100.00
62418;BME280;48456;54.242;10.280;2023-03-04T03:53:18;101552.47;;;4.47;100.00
62418;BME280;48456;54.242;10.280;2023-03-04T03:55:45;101551.53;;;4.45;100.00
62418;BME280;48456;54.242;10.280;2023-03-04T03:58:11;101549.72;;;4.42;100.00
62418;BME280;48456;54.242;10.280;2023-03-04T04:00:38;101548.00;;;4.43;100.00
62418;BME280;48456;54.242;10.280;2023-03-04T04:03:04;101548.75;;;4.40;100.00
62418;BME280;48456;54.242;10.280;2023-03-04T04:05:31;101550.50;;;4.40;100.00
62418;BME280;48456;54.242;10.280;2023-03-04T04:07:57;101546.09;;;4.39;100.00
62418;BME280;48456;54.242;10.280;2023-03-04T04:10:23;101536.44;;;4.38;100.00
62418;BME280;48456;54.242;10.280;2023-03-04T04:12:49;101534.66;;;4.37;100.00
62418;BME280;48456;54.242;10.280;2023-03-04T04:15:16;101543.38;;;4.36;100.00
62418;BME280;48456;54.242;10.280;2023-03-04T04:17:42;101550.28;;;4.34;100.00
62418;BME280;48456;54.242;10.280;2023-03-04T04:20:09;101540.66;;;4.33;100.00
62418;BME280;48456;54.242;10.280;2023-03-04T04:22:35;101550.09;;;4.27;100.00
62418;BME280;48456;54.242;10.280;2023-03-04T04:25:02;101549.06;;;4.24;100.00
62418;BME280;48456;54.242;10.280;2023-03-04T04:27:28;101549.97;;;4.24;100.00
62418;BME280;48456;54.242;10.280;2023-03-04T04:29:54;101548.19;;;4.23;100.00
62418;BME280;48456;54.242;10.280;2023-03-04T04:32:21;101538.47;;;4.19;100.00
62418;BME280;48456;54.242;10.280;2023-03-04T04:34:51;101539.31;;;4.18;100.00
62418;BME280;48456;54.242;10.280;2023-03-04T04:37:25;101528.72;;;4.15;100.00
62418;BME280;48456;54.242;10.280;2023-03-04T04:39:55;101539.13;;;4.13;100.00
62418;BME280;48456;54.242;10.280;2023-03-04T04:42:26;101545.16;;;4.11;100.00
62418;BME280;48456;54.242;10.280;2023-03-04T04:44:52;101546.00;;;4.10;100.00
62418;BME280;48456;54.242;10.280;2023-03-04T04:47:19;101550.34;;;4.09;100.00
62418;BME280;48456;54.242;10.280;2023-03-04T04:49:45;101545.00;;;4.06;100.00
62418;BME280;48456;54.242;10.280;2023-03-04T04:52:11;101548.41;;;4.03;100.00
62418;BME280;48456;54.242;10.280;2023-03-04T04:54:37;101555.38;;;4.03;100.00
62418;BME280;48456;54.242;10.280;2023-03-04T04:57:04;101546.56;;;4.01;100.00
62418;BME280;48456;54.242;10.280;2023-03-04T04:59:30;101543.88;;;3.99;100.00
62418;BME280;48456;54.242;10.280;2023-03-04T05:01:57;101536.88;;;3.98;100.00
62418;BME280;48456;54.242;10.280;2023-03-04T05:04:23;101552.47;;;3.95;100.00
62418;BME280;48456;54.242;10.280;2023-03-04T05:06:50;101535.91;;;3.95;100.00
62418;BME280;48456;54.242;10.280;2023-03-04T05:09:16;101544.53;;;3.92;100.00
62418;BME280;48456;54.242;10.280;2023-03-04T05:11:42;101541.81;;;3.89;100.00
62418;BME280;48456;54.242;10.280;2023-03-04T05:14:09;101540.03;;;3.88;100.00
62418;BME280;48456;54.242;10.280;2023-03-04T05:16:35;101549.53;;;3.86;100.00
62418;BME280;48456;54.242;10.280;2023-03-04T05:19:01;101545.88;;;3.81;100.00
62418;BME280;48456;54.242;10.280;2023-03-04T05:21:28;101544.09;;;3.80;100.00
62418;BME280;48456;54.242;10.280;2023-03-04T05:23:54;101544.81;;;3.75;100.00
62418;BME280;48456;54.242;10.280;2023-03-04T05:26:20;101548.31;;;3.76;100.00
62418;BME280;48456;54.242;10.280;2023-03-04T05:28:47;101553.47;;;3.74;100.00
62418;BME280;48456;54.242;10.280;2023-03-04T05:31:13;101552.63;;;3.74;100.00
62418;BME280;48456;54.242;10.280;2023-03-04T05:33:40;101559.44;;;3.70;100.00
62418;BME280;48456;54.242;10.280;2023-03-04T05:36:06;101548.94;;;3.69;100.00
62418;BME280;48456;54.242;10.280;2023-03-04T05:38:33;101552.44;;;3.69;100.00
62418;BME280;48456;54.242;10.280;2023-03-04T05:41:01;101555.84;;;3.67;100.00
62418;BME280;48456;54.242;10.280;2023-03-04T05:43:28;101550.53;;;3.65;100.00
62418;BME280;48456;54.242;10.280;2023-03-04T05:45:55;101553.09;;;3.63;100.00
62418;BME280;48456;54.242;10.280;2023-03-04T05:48:21;101560.88;;;3.60;100.00
62418;BME280;48456;54.242;10.280;2023-03-04T05:51:06;101549.69;;;3.64;100.00
62418;BME280;48456;54.242;10.280;2023-03-04T05:53:32;101554.84;;;3.63;100.00
62418;BME280;48456;54.242;10.280;2023-03-04T05:56:05;101549.50;;;3.60;100.00
62418;BME280;48456;54.242;10.280;2023-03-04T05:58:32;101558.19;;;3.59;100.00
62418;BME280;48456;54.242;10.280;2023-03-04T06:00:59;101548.53;;;3.58;100.00
62418;BME280;48456;54.242;10.280;2023-03-04T06:03:25;101561.66;;;3.59;100.00
62418;BME280;48456;54.242;10.280;2023-03-04T06:05:52;101560.75;;;3.57;100.00
62418;BME280;48456;54.242;10.280;2023-03-04T06:08:18;101558.19;;;3.59;100.00
62418;BME280;48456;54.242;10.280;2023-03-04T06:10:45;101554.59;;;3.57;100.00
62418;BME280;48456;54.242;10.280;2023-03-04T06:13:11;101562.44;;;3.57;100.00
62418;BME280;48456;54.242;10.280;2023-03-04T06:15:38;101557.22;;;3.57;100.00
62418;BME280;48456;54.242;10.280;2023-03-04T06:18:07;101560.63;;;3.54;100.00
62418;BME280;48456;54.242;10.280;2023-03-04T06:20:34;101558.00;;;3.54;100.00
62418;BME280;48456;54.242;10.280;2023-03-04T06:23:00;101567.59;;;3.54;100.00
62418;BME280;48456;54.242;10.280;2023-03-04T06:25:26;101569.31;;;3.53;100.00
62418;BME280;48456;54.242;10.280;2023-03-04T06:27:53;101560.56;;;3.53;100.00
62418;BME280;48456;54.242;10.280;2023-03-04T06:30:20;101564.06;;;3.53;100.00
62418;BME280;48456;54.242;10.280;2023-03-04T06:32:47;101566.69;;;3.53;100.00
62418;BME280;48456;54.242;10.280;2023-03-04T06:35:14;101575.44;;;3.54;100.00
62418;BME280;48456;54.242;10.280;2023-03-04T06:37:41;101570.22;;;3.54;100.00
62418;BME280;48456;54.242;10.280;2023-03-04T06:40:08;101577.22;;;3.55;100.00
62418;BME280;48456;54.242;10.280;2023-03-04T06:42:35;101579.84;;;3.55;100.00
62418;BME280;48456;54.242;10.280;2023-03-04T06:45:02;101584.22;;;3.56;100.00
62418;BME280;48456;54.242;10.280;2023-03-04T06:47:29;101575.59;;;3.58;100.00
62418;BME280;48456;54.242;10.280;2023-03-04T06:49:55;101581.53;;;3.54;100.00
62418;BME280;48456;54.242;10.280;2023-03-04T06:52:21;101589.47;;;3.56;100.00
62418;BME280;48456;54.242;10.280;2023-03-04T06:54:48;101593.78;;;3.55;100.00
62418;BME280;48456;54.242;10.280;2023-03-04T06:57:14;101587.56;;;3.51;100.00
62418;BME280;48456;54.242;10.280;2023-03-04T06:59:40;101591.03;;;3.50;100.00
62418;BME280;48456;54.242;10.280;2023-03-04T07:02:09;101591.88;;;3.51;100.00
62418;BME280;48456;54.242;10.280;2023-03-04T07:04:36;101582.44;;;3.55;100.00
62418;BME280;48456;54.242;10.280;2023-03-04T07:07:02;101587.69;;;3.55;100.00
62418;BME280;48456;54.242;10.280;2023-03-04T07:09:29;101586.19;;;3.61;100.00
62418;BME280;48456;54.242;10.280;2023-03-04T07:11:55;101579.31;;;3.65;100.00
62418;BME280;48456;54.242;10.280;2023-03-04T07:14:21;101595.03;;;3.65;100.00
62418;BME280;48456;54.242;10.280;2023-03-04T07:16:49;101589.78;;;3.65;100.00
62418;BME280;48456;54.242;10.280;2023-03-04T07:19:15;101586.44;;;3.69;100.00
62418;BME280;48456;54.242;10.280;2023-03-04T07:21:42;101584.88;;;3.74;100.00
62418;BME280;48456;54.242;10.280;2023-03-04T07:24:08;101594.81;;;3.83;100.00
62418;BME280;48456;54.242;10.280;2023-03-04T07:26:34;101585.19;;;3.82;100.00
62418;BME280;48456;54.242;10.280;2023-03-04T07:29:03;101587.91;;;3.85;100.00
62418;BME280;48456;54.242;10.280;2023-03-04T07:31:30;101597.56;;;3.86;100.00
62418;BME280;48456;54.242;10.280;2023-03-04T07:34:02;101604.13;;;3.75;100.00
62418;BME280;48456;54.242;10.280;2023-03-04T07:36:28;101607.38;;;3.69;100.00
62418;BME280;48456;54.242;10.280;2023-03-04T07:38:55;101597.75;;;3.68;100.00
62418;BME280;48456;54.242;10.280;2023-03-04T07:41:22;101612.63;;;3.69;100.00
62418;BME280;48456;54.242;10.280;2023-03-04T07:43:49;101611.78;;;3.70;100.00
62418;BME280;48456;54.242;10.280;2023-03-04T07:46:16;101623.34;;;3.75;100.00
62418;BME280;48456;54.242;10.280;2023-03-04T07:48:42;101621.31;;;3.68;100.00
62418;BME280;48456;54.242;10.280;2023-03-04T07:53:35;101625.78;;;3.71;100.00
62418;BME280;48456;54.242;10.280;2023-03-04T07:56:02;101633.81;;;3.75;100.00
62418;BME280;48456;54.242;10.280;2023-03-04T07:58:29;101634.59;;;3.73;100.00
62418;BME280;48456;54.242;10.280;2023-03-04T08:00:56;101643.03;;;3.66;100.00
62418;BME280;48456;54.242;10.280;2023-03-04T08:03:22;101639.94;;;3.53;100.00
62418;BME280;48456;54.242;10.280;2023-03-04T08:05:49;101634.44;;;3.45;100.00
62418;BME280;48456;54.242;10.280;2023-03-04T08:08:15;101637.44;;;3.56;100.00
62418;BME280;48456;54.242;10.280;2023-03-04T08:10:42;101639.97;;;3.77;100.00
62418;BME280;48456;54.242;10.280;2023-03-04T08:13:09;101636.56;;;3.80;100.00
62418;BME280;48456;54.242;10.280;2023-03-04T08:15:38;101640.44;;;3.90;100.00
62418;BME280;48456;54.242;10.280;2023-03-04T08:18:05;101631.13;;;3.98;100.00
62418;BME280;48456;54.242;10.280;2023-03-04T08:20:31;101633.81;;;4.00;100.00
62418;BME280;48456;54.242;10.280;2023-03-04T08:22:57;101640.59;;;3.95;100.00
62418;BME280;48456;54.242;10.280;2023-03-04T08:25:24;101633.53;;;3.92;100.00
62418;BME280;48456;54.242;10.280;2023-03-04T08:27:50;101630.22;;;3.98;100.00
62418;BME280;48456;54.242;10.280;2023-03-04T08:30:17;101633.88;;;4.01;100.00
62418;BME280;48456;54.242;10.280;2023-03-04T08:32:43;101636.44;;;4.00;100.00
62418;BME280;48456;54.242;10.280;2023-03-04T08:35:09;101637.53;;;4.07;100.00
62418;BME280;48456;54.242;10.280;2023-03-04T08:37:36;101630.84;;;4.15;100.00
62418;BME280;48456;54.242;10.280;2023-03-04T08:40:02;101628.41;;;4.20;100.00
62418;BME280;48456;54.242;10.280;2023-03-04T08:42:29;101636.63;;;4.31;100.00
62418;BME280;48456;54.242;10.280;2023-03-04T08:44:55;101635.69;;;4.28;100.00
62418;BME280;48456;54.242;10.280;2023-03-04T08:47:22;101640.78;;;4.25;100.00
62418;BME280;48456;54.242;10.280;2023-03-04T08:49:48;101632.78;;;4.21;100.00
62418;BME280;48456;54.242;10.280;2023-03-04T08:52:16;101630.38;;;4.27;100.00
62418;BME280;48456;54.242;10.280;2023-03-04T08:54:42;101628.41;;;4.20;100.00
62418;BME280;48456;54.242;10.280;2023-03-04T08:57:08;101637.31;;;4.25;100.00
62418;BME280;48456;54.242;10.280;2023-03-04T08:59:35;101640.75;;;4.24;100.00
62418;BME280;48456;54.242;10.280;2023-03-04T09:02:03;101645.91;;;4.21;100.00
62418;BME280;48456;54.242;10.280;2023-03-04T09:04:30;101640.34;;;4.11;100.00
62418;BME280;48456;54.242;10.280;2023-03-04T09:06:56;101632.41;;;4.10;100.00
62418;BME280;48456;54.242;10.280;2023-03-04T09:09:23;101630.84;;;4.15;100.00
62418;BME280;48456;54.242;10.280;2023-03-04T09:11:49;101629.34;;;4.22;100.00
62418;BME280;48456;54.242;10.280;2023-03-04T09:14:16;101628.06;;;4.35;100.00
62418;BME280;48456;54.242;10.280;2023-03-04T09:16:42;101638.66;;;4.39;100.00
62418;BME280;48456;54.242;10.280;2023-03-04T09:19:08;101640.44;;;4.40;100.00
62418;BME280;48456;54.242;10.280;2023-03-04T09:21:35;101634.03;;;4.32;100.00
62418;BME280;48456;54.242;10.280;2023-03-04T09:24:01;101629.88;;;4.37;100.00
62418;BME280;48456;54.242;10.280;2023-03-04T09:26:28;101640.44;;;4.40;100.00
62418;BME280;48456;54.242;10.280;2023-03-04T09:28:56;101642.91;;;4.36;100.00
62418;BME280;48456;54.242;10.280;2023-03-04T09:31:23;101647.84;;;4.26;100.00
62418;BME280;48456;54.242;10.280;2023-03-04T09:33:50;101634.84;;;4.29;100.00
62418;BME280;48456;54.242;10.280;2023-03-04T09:36:16;101634.03;;;4.32;100.00
62418;BME280;48456;54.242;10.280;2023-03-04T09:38:43;101644.94;;;4.43;100.00
62418;BME280;48456;54.242;10.280;2023-03-04T09:41:20;101646.78;;;4.47;100.00
62418;BME280;48456;54.242;10.280;2023-03-04T09:43:47;101643.28;;;4.47;100.00
62418;BME280;48456;54.242;10.280;2023-03-04T09:46:18;101646.78;;;4.47;100.00
62418;BME280;48456;54.242;10.280;2023-03-04T09:48:48;101642.50;;;4.49;100.00
62418;BME280;48456;54.242;10.280;2023-03-04T09:56:35;101640.34;;;4.63;100.00
62418;BME280;48456;54.242;10.280;2023-03-04T10:01:49;101645.75;;;4.68;100.00
62418;BME280;48456;54.242;10.280;2023-03-04T10:06:43;101641.47;;;4.98;100.00
62418;BME280;48456;54.242;10.280;2023-03-04T10:09:18;101647.59;;;4.98;100.00
62418;BME280;48456;54.242;10.280;2023-03-04T10:11:47;101631.56;;;4.89;100.00
62418;BME280;48456;54.242;10.280;2023-03-04T10:16:51;101638.41;;;4.84;100.00
62418;BME280;48456;54.242;10.280;2023-03-04T10:19:23;101639.19;;;4.81;100.00
62418;BME280;48456;54.242;10.280;2023-03-04T10:21:54;101642.84;;;4.86;100.00
62418;BME280;48456;54.242;10.280;2023-03-04T10:24:22;101634.06;;;4.84;100.00
62418;BME280;48456;54.242;10.280;2023-03-04T10:26:51;101632.00;;;5.03;100.00
62418;BME280;48456;54.242;10.280;2023-03-04T10:29:20;101637.47;;;5.09;100.00
62418;BME280;48456;54.242;10.280;2023-03-04T10:31:47;101637.75;;;4.91;100.00
62418;BME280;48456;54.242;10.280;2023-03-04T10:34:15;101647.94;;;4.81;100.00
62418;BME280;48456;54.242;10.280;2023-03-04T10:37:01;101646.69;;;4.70;100.00
62418;BME280;48456;54.242;10.280;2023-03-04T10:39:28;101656.94;;;4.90;100.00
62418;BME280;48456;54.242;10.280;2023-03-04T10:44:23;101646.94;;;4.78;100.00
62418;BME280;48456;54.242;10.280;2023-03-04T10:46:50;101653.53;;;4.65;100.00
62418;BME280;48456;54.242;10.280;2023-03-04T10:49:18;101646.03;;;4.50;100.00
62418;BME280;48456;54.242;10.280;2023-03-04T10:51:48;101646.22;;;4.56;100.00
62418;BME280;48456;54.242;10.280;2023-03-04T10:54:23;101646.78;;;4.47;100.00
62418;BME280;48456;54.242;10.280;2023-03-04T10:56:52;101652.25;;;4.53;100.00
62418;BME280;48456;54.242;10.280;2023-03-04T11:01:59;101648.59;;;4.74;100.00
62418;BME280;48456;54.242;10.280;2023-03-04T11:04:27;101659.81;;;4.70;100.00
62418;BME280;48456;54.242;10.280;2023-03-04T11:06:57;101659.94;;;4.75;100.00
62418;BME280;48456;54.242;10.280;2023-03-04T11:09:28;101659.81;;;4.70;100.00
62418;BME280;48456;54.242;10.280;2023-03-04T11:11:57;101661.13;;;4.85;100.00
62418;BME280;48456;54.242;10.280;2023-03-04T11:14:46;101656.94;;;4.64;100.00
62418;BME280;48456;54.242;10.280;2023-03-04T11:19:40;101667.72;;;4.72;100.00
62418;BME280;48456;54.242;10.280;2023-03-04T11:22:09;101661.06;;;4.81;100.00
62418;BME280;48456;54.242;10.280;2023-03-04T11:24:38;101668.53;;;4.71;100.00
62418;BME280;48456;54.242;10.280;2023-03-04T11:27:07;101652.28;;;4.81;100.00
62418;BME280;48456;54.242;10.280;2023-03-04T11:32:26;101665.88;;;5.23;100.00
62418;BME280;48456;54.242;10.280;2023-03-04T11:40:07;101672.84;;;5.22;100.00
62418;BME280;48456;54.242;10.280;2023-03-04T11:42:44;101677.56;;;5.34;100.00
62418;BME280;48456;54.242;10.280;2023-03-04T11:45:16;101672.53;;;5.40;100.00
62418;BME280;48456;54.242;10.280;2023-03-04T11:50:34;101664.16;;;5.25;100.00
62418;BME280;48456;54.242;10.280;2023-03-04T11:53:19;101664.22;;;5.26;100.00
62418;BME280;48456;54.242;10.280;2023-03-04T11:58:34;101668.31;;;5.45;100.00
62418;BME280;48456;54.242;10.280;2023-03-04T12:03:49;101658.50;;;5.69;100.00
62418;BME280;48456;54.242;10.280;2023-03-04T12:09:08;101642.03;;;7.07;100.00
62418;BME280;48456;54.242;10.280;2023-03-04T12:19:36;101630.38;;;6.97;100.00
62418;BME280;48456;54.242;10.280;2023-03-04T12:27:33;101623.94;;;7.61;100.00
62418;BME280;48456;54.242;10.280;2023-03-04T12:37:51;101627.81;;;5.37;100.00
62418;BME280;48456;54.242;10.280;2023-03-04T12:55:44;101608.25;;;6.52;100.00
62418;BME280;48456;54.242;10.280;2023-03-04T12:58:16;101602.00;;;5.82;100.00
62418;BME280;48456;54.242;10.280;2023-03-04T13:00:51;101606.41;;;5.52;100.00
62418;BME280;48456;54.242;10.280;2023-03-04T13:03:23;101613.41;;;5.52;100.00
62418;BME280;48456;54.242;10.280;2023-03-04T13:06:01;101606.22;;;7.13;100.00
62418;BME280;48456;54.242;10.280;2023-03-04T13:14:36;101594.16;;;10.74;100.00
62418;BME280;48456;54.242;10.280;2023-03-04T13:16:44;101591.09;;;11.63;100.00
62418;BME280;48456;54.242;10.280;2023-03-04T13:21:56;101594.00;;;12.72;100.00
62418;BME280;48456;54.242;10.280;2023-03-04T13:29:53;101600.38;;;9.91;100.00
62418;BME280;48456;54.242;10.280;2023-03-04T13:32:36;101608.78;;;8.94;100.00
62418;BME280;48456;54.242;10.280;2023-03-04T13:35:45;101611.16;;;7.81;100.00
62418;BME280;48456;54.242;10.280;2023-03-04T13:37:55;101604.88;;;7.33;100.00
62418;BME280;48456;54.242;10.280;2023-03-04T13:40:32;101611.13;;;7.79;100.00
62418;BME280;48456;54.242;10.280;2023-03-04T13:45:44;101601.97;;;8.53;100.00
62418;BME280;48456;54.242;10.280;2023-03-04T13:48:32;101604.91;;;8.71;100.00
62418;BME280;48456;54.242;10.280;2023-03-04T13:50:57;101597.13;;;8.78;100.00
62418;BME280;48456;54.242;10.280;2023-03-04T13:53:28;101595.81;;;9.08;100.00
62418;BME280;48456;54.242;10.280;2023-03-04T13:56:17;101598.72;;;8.71;100.00
62418;BME280;48456;54.242;10.280;2023-03-04T13:58:47;101589.19;;;8.28;100.00
62418;BME280;48456;54.242;10.280;2023-03-04T14:01:27;101591.88;;;8.30;100.00
62418;BME280;48456;54.242;10.280;2023-03-04T14:03:55;101593.50;;;7.75;100.00
62418;BME280;48456;54.242;10.280;2023-03-04T14:06:23;101588.41;;;7.41;100.00
62418;BME280;48456;54.242;10.280;2023-03-04T14:08:50;101595.81;;;7.20;100.00
62418;BME280;48456;54.242;10.280;2023-03-04T14:11:21;101596.06;;;6.91;100.00
62418;BME280;48456;54.242;10.280;2023-03-04T14:13:49;101602.94;;;6.85;100.00
62418;BME280;48456;54.242;10.280;2023-03-04T14:16:22;101602.16;;;6.89;100.00
62418;BME280;48456;54.242;10.280;2023-03-04T14:18:58;101605.34;;;6.76;100.00